createdAt,value
2022-08-26T00:02:04.948Z,24.24
2022-08-26T00:04:52.265Z,24.35
2022-08-26T00:07:39.927Z,24.40
2022-08-26T00:10:30.902Z,24.39
2022-08-26T00:13:19.531Z,24.40
2022-08-26T00:16:08.035Z,24.38
2022-08-26T00:18:59.213Z,24.41
2022-08-26T00:21:48.706Z,24.36
2022-08-26T00:24:36.889Z,24.26
2022-08-26T00:27:25.112Z,24.34
2022-08-26T00:30:22.747Z,24.28
2022-08-26T00:33:11.835Z,24.29
2022-08-26T00:35:59.197Z,24.27
2022-08-26T00:38:46.552Z,24.22
2022-08-26T00:41:35.209Z,24.24
2022-08-26T00:44:23.074Z,24.04
2022-08-26T00:47:22.564Z,23.89
2022-08-26T00:50:13.786Z,23.80
2022-08-26T00:53:21.350Z,23.77
2022-08-26T00:56:29.563Z,23.72
2022-08-26T00:59:17.832Z,23.60
2022-08-26T01:02:05.331Z,23.58
2022-08-26T01:04:56.419Z,23.57
2022-08-26T01:07:44.509Z,23.51
2022-08-26T01:10:31.854Z,23.37
2022-08-26T01:13:20.162Z,23.42
2022-08-26T01:16:12.690Z,23.43
2022-08-26T01:19:15.690Z,23.38
2022-08-26T01:22:10.212Z,23.35
2022-08-26T01:25:03.565Z,23.36
2022-08-26T01:27:52.069Z,23.28
2022-08-26T01:30:40.740Z,23.27
2022-08-26T01:33:52.380Z,23.23
2022-08-26T01:36:40.588Z,23.25
2022-08-26T01:39:32.173Z,23.26
2022-08-26T01:42:22.318Z,23.24
2022-08-26T01:45:15.306Z,23.21
2022-08-26T01:48:08.907Z,23.18
2022-08-26T01:50:58.456Z,23.16
2022-08-26T01:53:46.508Z,23.12
2022-08-26T01:56:36.475Z,23.00
2022-08-26T01:59:25.016Z,23.02
2022-08-26T02:02:12.976Z,23.06
2022-08-26T02:05:05.818Z,23.00
2022-08-26T02:07:53.364Z,23.03
2022-08-26T02:10:41.147Z,23.00
2022-08-26T02:13:31.443Z,22.96
2022-08-26T02:16:21.992Z,22.97
2022-08-26T02:19:16.901Z,22.89
2022-08-26T02:22:08.293Z,22.89
2022-08-26T02:24:58.929Z,22.88
2022-08-26T02:27:47.585Z,22.83
2022-08-26T02:30:34.992Z,22.75
2022-08-26T02:33:23.072Z,22.71
2022-08-26T02:36:10.493Z,22.71
2022-08-26T02:38:59.470Z,22.65
2022-08-26T02:41:46.856Z,22.64
2022-08-26T02:44:35.699Z,22.65
2022-08-26T02:47:24.867Z,22.60
2022-08-26T02:50:12.305Z,22.57
2022-08-26T02:52:59.597Z,22.49
2022-08-26T02:55:49.411Z,22.51
2022-08-26T02:58:37.248Z,22.47
2022-08-26T03:01:35.373Z,22.53
2022-08-26T03:04:22.744Z,22.50
2022-08-26T03:07:13.260Z,22.46
2022-08-26T03:10:00.765Z,22.45
2022-08-26T03:12:48.266Z,22.41
2022-08-26T03:15:35.545Z,22.46
2022-08-26T03:18:24.596Z,22.46
2022-08-26T03:21:17.793Z,22.50
2022-08-26T03:24:05.889Z,22.52
2022-08-26T03:26:53.313Z,22.49
2022-08-26T03:29:59.612Z,22.53
2022-08-26T03:32:46.853Z,22.52
2022-08-26T03:35:34.961Z,22.50
2022-08-26T03:38:26.692Z,22.54
2022-08-26T03:41:14.092Z,22.56
2022-08-26T03:44:02.410Z,22.58
2022-08-26T03:46:50.850Z,22.57
2022-08-26T03:49:38.371Z,22.63
2022-08-26T03:52:26.594Z,22.66
2022-08-26T03:55:16.441Z,22.67
2022-08-26T03:58:05.006Z,22.66
2022-08-26T04:00:55.557Z,22.64
2022-08-26T04:04:00.020Z,22.65
2022-08-26T04:06:48.049Z,22.65
2022-08-26T04:09:35.479Z,22.63
2022-08-26T04:12:23.632Z,22.59
2022-08-26T04:15:15.110Z,22.63
2022-08-26T04:18:02.371Z,22.67
2022-08-26T04:20:50.526Z,22.63
2022-08-26T04:23:47.560Z,22.69
2022-08-26T04:26:39.554Z,22.61
2022-08-26T04:29:30.189Z,22.56
2022-08-26T04:32:17.499Z,22.59
2022-08-26T04:35:05.551Z,22.60
2022-08-26T04:37:53.529Z,22.69
2022-08-26T04:40:46.695Z,22.61
2022-08-26T04:43:34.286Z,22.65
2022-08-26T04:46:24.350Z,22.67
2022-08-26T04:49:12.718Z,22.63
2022-08-26T04:52:00.026Z,22.67
2022-08-26T04:54:47.308Z,22.67
2022-08-26T04:57:35.318Z,22.65
2022-08-26T05:00:23.096Z,22.68
2022-08-26T05:03:10.765Z,22.65
2022-08-26T05:05:58.582Z,22.65
2022-08-26T05:08:46.667Z,22.65
2022-08-26T05:11:34.055Z,22.69
2022-08-26T05:14:23.245Z,22.66
2022-08-26T05:17:10.660Z,22.70
2022-08-26T05:20:02.517Z,22.79
2022-08-26T05:22:51.287Z,22.69
2022-08-26T05:25:41.835Z,22.74
2022-08-26T05:28:29.928Z,22.74
2022-08-26T05:31:19.910Z,22.75
2022-08-26T05:34:07.445Z,22.79
2022-08-26T05:36:55.918Z,22.79
2022-08-26T05:39:43.561Z,22.88
2022-08-26T05:42:38.562Z,22.96
2022-08-26T05:45:26.480Z,23.09
2022-08-26T05:48:16.872Z,23.04
2022-08-26T05:51:08.480Z,23.12
2022-08-26T05:53:56.249Z,23.17
2022-08-26T05:56:43.497Z,23.14
2022-08-26T05:59:33.859Z,23.17
2022-08-26T06:02:24.781Z,23.12
2022-08-26T06:05:13.104Z,23.15
2022-08-26T06:08:14.108Z,23.17
2022-08-26T06:11:05.553Z,23.24
2022-08-26T06:14:03.057Z,23.21
2022-08-26T06:16:51.376Z,23.20
2022-08-26T06:19:38.666Z,23.29
2022-08-26T06:22:47.262Z,23.20
2022-08-26T06:25:38.513Z,23.30
2022-08-26T06:28:26.573Z,23.32
2022-08-26T06:31:15.303Z,23.37
2022-08-26T06:34:08.593Z,23.36
2022-08-26T06:37:06.379Z,23.32
2022-08-26T06:39:53.917Z,23.34
2022-08-26T06:42:41.257Z,23.38
2022-08-26T06:45:28.558Z,23.49
2022-08-26T06:48:18.957Z,23.54
2022-08-26T06:51:15.228Z,23.55
2022-08-26T06:54:04.536Z,23.69
2022-08-26T06:56:52.249Z,23.74
2022-08-26T06:59:39.515Z,23.75
2022-08-26T07:02:28.597Z,23.73
2022-08-26T07:05:16.176Z,23.78
2022-08-26T07:08:03.740Z,23.76
2022-08-26T07:10:51.142Z,23.73
2022-08-26T07:13:43.103Z,23.68
2022-08-26T07:16:30.685Z,23.73
2022-08-26T07:19:30.430Z,23.67
2022-08-26T07:22:18.709Z,23.79
2022-08-26T07:25:08.639Z,23.88
2022-08-26T07:27:55.904Z,24.00
2022-08-26T07:30:43.406Z,24.04
2022-08-26T07:33:30.736Z,24.13
2022-08-26T07:36:19.132Z,24.11
2022-08-26T07:39:06.796Z,24.15
2022-08-26T07:41:54.277Z,24.16
2022-08-26T07:44:43.559Z,24.04
2022-08-26T07:47:31.004Z,23.98
2022-08-26T07:50:18.339Z,23.94
2022-08-26T07:53:05.711Z,23.75
2022-08-26T07:55:56.154Z,24.01
2022-08-26T07:58:45.743Z,24.02
2022-08-26T08:01:35.527Z,23.77
2022-08-26T08:04:27.069Z,23.81
2022-08-26T08:07:14.610Z,23.84
2022-08-26T08:10:04.562Z,23.83
2022-08-26T08:12:57.515Z,23.83
2022-08-26T08:15:46.141Z,23.86
2022-08-26T08:18:33.550Z,23.80
2022-08-26T08:21:21.760Z,23.78
2022-08-26T08:24:11.560Z,23.75
2022-08-26T08:27:00.432Z,23.71
2022-08-26T08:29:47.862Z,23.46
2022-08-26T08:32:39.883Z,23.63
2022-08-26T08:35:27.405Z,23.54
2022-08-26T08:38:15.473Z,23.40
2022-08-26T08:41:05.602Z,23.43
2022-08-26T08:43:53.348Z,23.50
2022-08-26T08:46:42.819Z,23.50
2022-08-26T08:49:32.160Z,23.43
2022-08-26T08:52:35.060Z,23.44
2022-08-26T08:55:30.731Z,23.51
2022-08-26T08:58:21.777Z,23.63
2022-08-26T09:01:17.437Z,23.64
2022-08-26T09:04:17.280Z,23.52
2022-08-26T09:07:08.770Z,23.54
2022-08-26T09:10:00.888Z,23.61
2022-08-26T09:12:49.300Z,23.69
2022-08-26T09:16:01.608Z,23.79
2022-08-26T09:18:48.877Z,23.83
2022-08-26T09:21:37.388Z,23.72
2022-08-26T09:24:28.402Z,23.70
2022-08-26T09:27:41.917Z,23.82
2022-08-26T09:30:33.153Z,23.81
2022-08-26T09:33:28.393Z,23.84
2022-08-26T09:36:15.673Z,23.82
2022-08-26T09:39:04.418Z,23.84
2022-08-26T09:42:11.795Z,23.95
2022-08-26T09:45:03.485Z,24.03
2022-08-26T09:47:51.203Z,24.02
2022-08-26T09:50:51.278Z,24.03
2022-08-26T09:53:52.387Z,24.07
2022-08-26T09:56:40.147Z,24.11
2022-08-26T09:59:30.753Z,24.12
2022-08-26T10:02:29.702Z,24.14
2022-08-26T10:05:29.658Z,24.08
2022-08-26T10:08:38.471Z,24.18
2022-08-26T10:11:42.447Z,24.20
2022-08-26T10:17:41.309Z,24.16
2022-08-26T10:20:37.941Z,24.17
2022-08-26T10:23:32.654Z,23.93
2022-08-26T10:26:41.274Z,23.91
2022-08-26T10:29:39.166Z,23.98
2022-08-26T10:32:35.185Z,24.10
2022-08-26T10:35:26.905Z,24.04
2022-08-26T10:38:18.390Z,24.08
2022-08-26T10:41:15.853Z,24.14
2022-08-26T10:44:08.365Z,24.11
2022-08-26T10:47:09.022Z,24.17
2022-08-26T10:50:00.553Z,24.21
2022-08-26T10:53:13.853Z,24.30
2022-08-26T10:56:01.975Z,24.13
2022-08-26T10:59:26.372Z,24.19
2022-08-26T11:02:39.668Z,24.38
2022-08-26T11:05:26.925Z,24.34
2022-08-26T11:08:20.846Z,24.41
2022-08-26T11:11:08.294Z,24.72
2022-08-26T11:14:05.494Z,24.89
2022-08-26T11:16:56.833Z,24.95
2022-08-26T11:20:09.163Z,25.15
2022-08-26T11:23:13.006Z,25.18
2022-08-26T11:26:35.383Z,25.30
2022-08-26T11:30:15.685Z,25.28
2022-08-26T11:33:07.083Z,25.38
2022-08-26T11:35:54.941Z,25.24
2022-08-26T11:38:42.641Z,25.38
2022-08-26T11:41:31.245Z,25.54
2022-08-26T11:44:26.173Z,25.44
2022-08-26T11:47:16.337Z,25.54
2022-08-26T11:50:12.509Z,25.66
2022-08-26T11:53:06.280Z,25.84
2022-08-26T11:55:56.908Z,26.02
2022-08-26T11:58:47.666Z,26.08
2022-08-26T12:01:36.247Z,26.18
2022-08-26T12:04:30.295Z,26.04
2022-08-26T12:07:24.410Z,25.87
2022-08-26T12:10:26.677Z,25.81
2022-08-26T12:13:23.476Z,25.86
2022-08-26T12:16:12.454Z,25.90
2022-08-26T12:19:00.085Z,26.10
2022-08-26T12:21:48.864Z,26.08
2022-08-26T12:24:42.252Z,25.94
2022-08-26T12:27:37.174Z,25.80
2022-08-26T12:30:26.296Z,25.72
2022-08-26T12:33:23.082Z,25.73
2022-08-26T12:36:12.086Z,25.86
2022-08-26T12:39:30.856Z,26.03
2022-08-26T12:42:38.489Z,26.02
2022-08-26T12:45:31.364Z,25.96
2022-08-26T12:48:29.857Z,25.99
2022-08-26T12:51:25.121Z,26.00
2022-08-26T12:54:15.893Z,25.94
2022-08-26T12:57:11.830Z,25.90
2022-08-26T13:00:26.271Z,25.97
2022-08-26T13:03:33.753Z,26.04
2022-08-26T13:06:22.072Z,25.95
2022-08-26T13:09:09.262Z,25.87
2022-08-26T13:11:58.493Z,25.68
2022-08-26T13:14:46.113Z,25.66
2022-08-26T13:17:35.768Z,25.72
2022-08-26T13:20:23.217Z,25.79
2022-08-26T13:23:10.778Z,25.75
2022-08-26T13:25:59.825Z,25.65
2022-08-26T13:28:48.628Z,25.61
2022-08-26T13:31:49.394Z,25.68
2022-08-26T13:34:37.621Z,25.65
2022-08-26T13:37:34.308Z,25.92
2022-08-26T13:40:22.165Z,26.00
2022-08-26T13:43:10.926Z,26.01
2022-08-26T13:45:58.275Z,26.03
2022-08-26T13:48:45.581Z,26.06
2022-08-26T13:51:33.563Z,26.03
2022-08-26T13:54:21.125Z,26.04
2022-08-26T13:57:09.065Z,25.99
2022-08-26T13:59:58.812Z,25.96
2022-08-26T14:02:46.829Z,25.92
2022-08-26T14:05:34.177Z,25.87
2022-08-26T14:08:22.232Z,25.59
2022-08-26T14:11:09.885Z,25.53
2022-08-26T14:13:57.160Z,25.59
2022-08-26T14:16:58.966Z,25.63
2022-08-26T14:19:49.683Z,25.39
2022-08-26T14:22:43.709Z,25.50
2022-08-26T14:25:45.593Z,25.57
2022-08-26T14:28:32.861Z,25.62
2022-08-26T14:31:20.702Z,25.61
2022-08-26T14:34:08.105Z,25.50
2022-08-26T14:36:55.357Z,25.59
2022-08-26T14:39:42.725Z,25.61
2022-08-26T14:42:31.592Z,25.63
2022-08-26T14:45:23.166Z,25.64
2022-08-26T14:48:10.813Z,25.58
2022-08-26T14:50:58.091Z,25.52
2022-08-26T14:54:03.814Z,25.59
2022-08-26T14:56:54.556Z,25.63
2022-08-26T14:59:49.749Z,25.63
2022-08-26T15:02:38.756Z,25.50
2022-08-26T15:05:26.125Z,25.69
2022-08-26T15:08:13.367Z,25.73
2022-08-26T15:11:00.703Z,25.80
2022-08-26T15:13:48.172Z,25.69
2022-08-26T15:16:38.041Z,25.71
2022-08-26T15:19:26.737Z,25.53
2022-08-26T15:22:14.018Z,25.55
2022-08-26T15:25:01.851Z,25.59
2022-08-26T15:27:49.122Z,25.61
2022-08-26T15:30:36.441Z,25.58
2022-08-26T15:33:23.710Z,25.50
2022-08-26T15:36:11.526Z,25.47
2022-08-26T15:39:00.569Z,25.44
2022-08-26T15:41:47.942Z,25.39
2022-08-26T15:44:36.539Z,25.35
2022-08-26T15:47:24.285Z,25.28
2022-08-26T15:50:11.701Z,25.40
2022-08-26T15:53:01.264Z,25.21
2022-08-26T15:55:49.009Z,25.27
2022-08-26T15:58:37.038Z,25.14
2022-08-26T16:01:27.724Z,25.10
2022-08-26T16:04:15.390Z,25.10
2022-08-26T16:07:03.321Z,25.04
2022-08-26T16:09:54.248Z,24.99
2022-08-26T16:12:42.493Z,24.90
2022-08-26T16:15:32.259Z,24.72
2022-08-26T16:18:20.333Z,24.64
2022-08-26T16:21:20.324Z,24.70
2022-08-26T16:24:07.847Z,24.75
2022-08-26T16:26:55.118Z,24.64
2022-08-26T16:29:42.417Z,24.73
2022-08-26T16:32:31.353Z,24.66
2022-08-26T16:35:18.752Z,24.64
2022-08-26T16:38:06.556Z,24.51
2022-08-26T16:40:53.977Z,24.34
2022-08-26T16:43:41.301Z,24.33
2022-08-26T16:46:29.030Z,24.20
2022-08-26T16:49:16.410Z,24.10
2022-08-26T16:52:04.438Z,24.14
2022-08-26T16:54:53.014Z,24.26
2022-08-26T16:57:42.985Z,24.11
2022-08-26T17:00:32.990Z,24.15
2022-08-26T17:03:20.475Z,24.09
2022-08-26T17:06:08.385Z,24.06
2022-08-26T17:08:55.717Z,24.10
2022-08-26T17:11:43.680Z,24.20
2022-08-26T17:14:31.290Z,24.11
2022-08-26T17:17:18.557Z,24.06
2022-08-26T17:20:09.690Z,23.96
2022-08-26T17:22:57.073Z,23.91
2022-08-26T17:25:44.407Z,23.86
2022-08-26T17:28:32.217Z,23.76
2022-08-26T17:31:20.876Z,23.72
2022-08-26T17:34:08.313Z,23.69
2022-08-26T17:36:55.637Z,23.82
2022-08-26T17:39:44.049Z,23.90
2022-08-26T17:42:31.860Z,23.68
2022-08-26T17:48:08.352Z,23.51
2022-08-26T17:50:56.440Z,23.47
2022-08-26T17:53:43.773Z,23.47
2022-08-26T17:56:31.165Z,23.28
2022-08-26T17:59:18.492Z,23.12
2022-08-26T18:02:06.219Z,23.38
2022-08-26T18:04:53.462Z,23.37
2022-08-26T18:07:44.000Z,23.27
2022-08-26T18:10:32.046Z,23.28
2022-08-26T18:13:19.324Z,23.26
2022-08-26T18:16:06.836Z,23.19
2022-08-26T18:18:54.383Z,23.23
2022-08-26T18:21:41.637Z,23.08
2022-08-26T18:24:30.436Z,23.12
2022-08-26T18:27:17.692Z,23.15
2022-08-26T18:30:09.807Z,23.13
2022-08-26T18:33:00.217Z,23.20
2022-08-26T18:35:47.516Z,23.19
2022-08-26T18:38:34.825Z,23.16
2022-08-26T18:41:24.766Z,23.18
2022-08-26T18:44:14.114Z,23.11
2022-08-26T18:47:01.452Z,23.12
2022-08-26T18:49:48.693Z,23.14
2022-08-26T18:52:36.282Z,23.05
2022-08-26T18:55:23.643Z,23.03
2022-08-26T18:58:11.579Z,23.11
2022-08-26T19:00:59.260Z,23.03
2022-08-26T19:03:48.033Z,22.96
2022-08-26T19:06:35.771Z,22.94
2022-08-26T19:09:26.070Z,22.89
2022-08-26T19:12:13.349Z,22.92
2022-08-26T19:15:02.438Z,22.86
2022-08-26T19:17:50.212Z,22.82
2022-08-26T19:20:46.392Z,22.82
2022-08-26T19:23:34.434Z,22.84
2022-08-26T19:26:22.047Z,22.78
2022-08-26T19:29:09.490Z,22.78
2022-08-26T19:31:56.805Z,22.73
2022-08-26T19:34:44.470Z,22.79
2022-08-26T19:37:32.715Z,22.72
2022-08-26T19:40:20.019Z,22.72
2022-08-26T19:43:08.389Z,22.69
2022-08-26T19:45:55.777Z,22.71
2022-08-26T19:48:44.433Z,22.68
2022-08-26T19:51:33.854Z,22.76
2022-08-26T19:54:24.361Z,22.66
2022-08-26T19:57:11.691Z,22.74
2022-08-26T19:59:59.690Z,22.69
2022-08-26T20:02:47.469Z,22.58
2022-08-26T20:05:35.238Z,22.61
2022-08-26T20:08:22.862Z,22.62
2022-08-26T20:11:14.511Z,22.55
2022-08-26T20:14:02.142Z,22.53
2022-08-26T20:16:49.534Z,22.57
2022-08-26T20:19:55.475Z,22.52
2022-08-26T20:22:43.132Z,22.45
2022-08-26T20:25:32.473Z,22.42
2022-08-26T20:28:19.728Z,22.44
2022-08-26T20:31:06.987Z,22.42
2022-08-26T20:33:56.077Z,22.43
2022-08-26T20:36:44.496Z,22.46
2022-08-26T20:39:31.752Z,22.43
2022-08-26T20:42:20.029Z,22.46
2022-08-26T20:45:08.642Z,22.43
2022-08-26T20:47:55.905Z,22.42
2022-08-26T20:50:43.195Z,22.39
2022-08-26T20:53:31.304Z,22.25
2022-08-26T20:56:26.180Z,22.29
2022-08-26T20:59:14.126Z,22.34
2022-08-26T21:02:01.449Z,22.35
2022-08-26T21:04:48.782Z,22.37
2022-08-26T21:07:36.075Z,22.36
2022-08-26T21:10:23.511Z,22.33
2022-08-26T21:13:11.523Z,22.29
2022-08-26T21:16:02.026Z,22.33
2022-08-26T21:18:49.877Z,22.25
2022-08-26T21:21:37.477Z,22.23
2022-08-26T21:24:24.769Z,22.23
2022-08-26T21:27:12.044Z,22.12
2022-08-26T21:29:59.352Z,22.17
2022-08-26T21:32:46.641Z,22.13
2022-08-26T21:35:34.223Z,22.11
2022-08-26T21:38:22.149Z,22.24
2022-08-26T21:41:14.501Z,22.11
2022-08-26T21:44:04.067Z,22.11
2022-08-26T21:46:51.293Z,22.10
2022-08-26T21:49:38.950Z,22.10
2022-08-26T21:52:26.461Z,22.15
2022-08-26T21:55:13.751Z,21.98
2022-08-26T21:58:01.125Z,22.02
2022-08-26T22:00:49.588Z,22.06
2022-08-26T22:03:46.638Z,22.02
2022-08-26T22:06:43.132Z,22.03
2022-08-26T22:09:31.553Z,22.10
2022-08-26T22:12:18.974Z,22.06
2022-08-26T22:15:06.933Z,22.03
2022-08-26T22:17:54.169Z,21.97
2022-08-26T22:20:41.777Z,21.85
2022-08-26T22:23:29.312Z,21.74
2022-08-26T22:26:25.532Z,21.83
2022-08-26T22:29:13.581Z,21.70
2022-08-26T22:32:01.475Z,21.63
2022-08-26T22:34:48.861Z,21.65
2022-08-26T22:37:36.130Z,21.52
2022-08-26T22:40:23.530Z,21.40
2022-08-26T22:43:12.021Z,21.35
2022-08-26T22:45:59.360Z,21.22
2022-08-26T22:48:46.873Z,21.21
2022-08-26T22:51:39.236Z,21.22
2022-08-26T22:54:26.609Z,21.12
2022-08-26T22:57:13.882Z,21.14
2022-08-26T23:00:01.177Z,21.08
2022-08-26T23:02:48.449Z,21.06
2022-08-26T23:05:35.749Z,21.04
2022-08-26T23:08:24.602Z,21.00
2022-08-26T23:11:12.927Z,21.02
2022-08-26T23:14:05.035Z,20.95
2022-08-26T23:16:53.749Z,20.99
2022-08-26T23:19:41.243Z,21.00
2022-08-26T23:22:28.562Z,20.83
2022-08-26T23:25:15.905Z,20.83
2022-08-26T23:28:03.926Z,20.80
2022-08-26T23:30:51.281Z,20.85
2022-08-26T23:33:57.217Z,20.89
2022-08-26T23:36:46.318Z,20.78
2022-08-26T23:39:35.968Z,20.76
2022-08-26T23:42:23.257Z,20.76
2022-08-26T23:45:12.700Z,20.70
2022-08-26T23:48:00.034Z,20.67
2022-08-26T23:51:05.919Z,20.76
2022-08-26T23:53:53.218Z,20.87
2022-08-26T23:56:40.849Z,20.96
2022-08-26T23:59:28.196Z,21.09
